Time;durP1;ratioP1;P1;durP2;ratioP2;P2;SDS_P1;SDS_P2;PMS_P1;PMS_P2;Temp;Humidity;BMP_temperature;BMP_pressure;BME280_temperature;BME280_humidity;BME280_pressure;Samples;Min_cycle;Max_cycle;Signal;HPM_P1;HPM_P2
2021/10/03 00:01:55;;;;;;;;;;;;;;;19.72;68.64;98910.94;7281050;19;153213;-52
2021/10/03 00:04:23;;;;;;;;;;;;;;;19.71;68.56;98920.53;7297040;19;151843;-52
2021/10/03 00:06:51;;;;;;;;;;;;;;;19.71;68.62;98911.31;7285837;19;154556;-52
2021/10/03 00:09:19;;;;;;;;;;;;;;;19.71;68.87;98923.34;7285480;19;152416;-52
2021/10/03 00:11:46;;;;;;;;;;;;;;;19.71;68.98;98900.09;7288205;19;153478;-52
2021/10/03 00:14:13;;;;;;;;;;;;;;;19.72;68.54;98913.72;7287018;19;153604;-53
2021/10/03 00:16:40;;;;;;;;;;;;;;;19.69;68.75;98911.66;7289628;19;151630;-52
2021/10/03 00:19:08;;;;;;;;;;;;;;;19.71;69.03;98906.53;7287795;19;151920;-52
2021/10/03 00:21:38;;;;;;;;;;;;;;;19.68;69.17;98898.81;7286110;19;154141;-53
2021/10/03 00:24:05;;;;;;;;;;;;;;;19.71;68.98;98894.50;7289429;19;151665;-52
2021/10/03 00:26:34;;;;;;;;;;;;;;;19.69;68.97;98903.25;7293347;19;152260;-52
2021/10/03 00:29:02;;;;;;;;;;;;;;;19.69;68.96;98917.25;7287859;19;151716;-52
2021/10/03 00:31:29;;;;;;;;;;;;;;;19.66;69.06;98923.56;7287339;19;152775;-53
2021/10/03 00:33:56;;;;;;;;;;;;;;;19.67;69.26;98939.19;7287626;19;154048;-52
2021/10/03 00:36:23;;;;;;;;;;;;;;;19.65;69.14;98944.34;7287098;19;152486;-52
2021/10/03 00:38:50;;;;;;;;;;;;;;;19.65;69.28;98955.53;7289251;19;153302;-52
2021/10/03 00:41:17;;;;;;;;;;;;;;;19.64;69.70;98941.88;7288460;19;153305;-52
2021/10/03 00:43:44;;;;;;;;;;;;;;;19.66;69.42;98943.19;7287898;19;151990;-52
2021/10/03 00:46:11;;;;;;;;;;;;;;;19.64;69.93;98953.09;7284022;19;152704;-52
2021/10/03 00:48:38;;;;;;;;;;;;;;;19.65;69.65;98951.94;7294709;19;151805;-52
2021/10/03 00:51:05;;;;;;;;;;;;;;;19.63;69.82;98957.88;7284983;19;152393;-57
2021/10/03 00:53:32;;;;;;;;;;;;;;;19.62;69.95;98970.25;7287610;19;154452;-52
2021/10/03 00:55:59;;;;;;;;;;;;;;;19.63;69.90;98974.69;7289136;19;152023;-52
2021/10/03 00:58:27;;;;;;;;;;;;;;;19.64;69.63;98984.72;7286977;19;153400;-51
2021/10/03 01:00:54;;;;;;;;;;;;;;;19.59;69.91;98978.53;7284810;19;153291;-52
2021/10/03 01:03:21;;;;;;;;;;;;;;;19.59;70.24;98981.34;7287998;19;152293;-52
2021/10/03 01:05:48;;;;;;;;;;;;;;;19.60;70.17;98964.19;7287488;19;152656;-51
2021/10/03 01:08:15;;;;;;;;;;;;;;;19.57;70.14;98962.09;7294446;19;154217;-52
2021/10/03 01:10:42;;;;;;;;;;;;;;;19.57;70.00;98967.69;7280596;19;152088;-52
2021/10/03 01:13:12;;;;;;;;;;;;;;;19.57;70.28;98972.47;7286427;19;153062;-52
2021/10/03 01:15:41;;;;;;;;;;;;;;;19.57;69.95;98967.69;7286407;19;151863;-52
2021/10/03 01:18:09;;;;;;;;;;;;;;;19.56;70.53;98988.47;7286821;19;153161;-52
2021/10/03 01:20:37;;;;;;;;;;;;;;;19.55;70.53;98984.03;7284946;19;153917;-53
2021/10/03 01:23:04;;;;;;;;;;;;;;;19.56;70.10;98991.25;7288382;19;151821;-52
2021/10/03 01:25:33;;;;;;;;;;;;;;;19.54;70.16;98977.59;7284782;19;152052;-52
2021/10/03 01:28:00;;;;;;;;;;;;;;;19.54;70.36;98985.19;7283727;19;153961;-52
2021/10/03 01:30:27;;;;;;;;;;;;;;;19.53;70.04;98981.56;7295274;19;152008;-52
2021/10/03 01:32:54;;;;;;;;;;;;;;;19.54;70.35;98980.41;7286591;19;152615;-52
2021/10/03 01:35:22;;;;;;;;;;;;;;;19.55;70.48;98970.00;7285639;19;152019;-52
2021/10/03 01:37:50;;;;;;;;;;;;;;;19.54;70.28;98977.59;7286021;19;151976;-52
2021/10/03 01:40:18;;;;;;;;;;;;;;;19.57;70.40;98975.28;7283953;19;152294;-52
2021/10/03 01:42:46;;;;;;;;;;;;;;;19.58;69.95;98979.72;7287314;19;152267;-51
2021/10/03 01:45:14;;;;;;;;;;;;;;;19.55;70.23;98978.41;7285581;19;153659;-51
2021/10/03 01:47:44;;;;;;;;;;;;;;;19.55;70.37;98989.63;7283959;19;154141;-52
2021/10/03 01:50:11;;;;;;;;;;;;;;;19.53;70.52;98995.56;7285389;19;151796;-51
2021/10/03 01:52:38;;;;;;;;;;;;;;;19.51;70.23;99003.50;7291177;19;153444;-52
2021/10/03 01:55:05;;;;;;;;;;;;;;;19.53;70.24;98997.56;7285497;19;152172;-52
2021/10/03 01:57:32;;;;;;;;;;;;;;;19.53;70.30;99000.38;7286634;19;152145;-52
2021/10/03 01:59:59;;;;;;;;;;;;;;;19.52;70.31;99007.13;7285116;19;154249;-52
2021/10/03 02:02:26;;;;;;;;;;;;;;;19.51;70.04;99019.50;7287474;19;152185;-52
2021/10/03 02:04:54;;;;;;;;;;;;;;;19.51;69.92;99011.09;7288686;19;152090;-53
2021/10/03 02:07:21;;;;;;;;;;;;;;;19.52;70.32;99013.56;7283295;19;153228;-53
2021/10/03 02:09:48;;;;;;;;;;;;;;;19.51;69.95;99003.50;7283781;19;152431;-52
2021/10/03 02:12:15;;;;;;;;;;;;;;;19.51;70.39;99005.50;7283369;19;152846;-52
2021/10/03 02:14:42;;;;;;;;;;;;;;;19.50;69.90;99012.25;7294683;19;153414;-52
2021/10/03 02:17:09;;;;;;;;;;;;;;;19.50;70.16;99017.84;7288541;19;152800;-53
2021/10/03 02:19:39;;;;;;;;;;;;;;;19.50;70.19;99001.06;7285006;19;153232;-52
2021/10/03 02:22:07;;;;;;;;;;;;;;;19.48;70.04;99009.00;7285962;19;151959;-52
2021/10/03 02:24:35;;;;;;;;;;;;;;;19.49;70.12;99005.84;7286359;19;152862;-52
2021/10/03 02:27:02;;;;;;;;;;;;;;;19.47;70.14;99012.97;7282009;19;153957;-52
2021/10/03 02:29:29;;;;;;;;;;;;;;;19.46;70.10;99016.94;7285055;19;152167;-52
2021/10/03 02:31:57;;;;;;;;;;;;;;;19.47;70.08;99005.38;7287805;19;153537;-53
2021/10/03 02:34:26;;;;;;;;;;;;;;;19.48;69.77;99003.41;7284532;19;153933;-53
2021/10/03 02:36:53;;;;;;;;;;;;;;;19.46;70.25;98995.34;7295009;19;151798;-52
2021/10/03 02:39:20;;;;;;;;;;;;;;;19.45;70.19;98988.09;7286647;19;153946;-53
2021/10/03 02:41:47;;;;;;;;;;;;;;;19.44;70.59;98986.44;7287603;19;151754;-52
2021/10/03 02:44:14;;;;;;;;;;;;;;;19.46;70.32;98988.91;7285582;19;151661;-53
2021/10/03 02:46:41;;;;;;;;;;;;;;;19.43;70.29;98986.78;7281136;19;154018;-52
2021/10/03 02:49:08;;;;;;;;;;;;;;;19.43;70.53;98989.59;7288585;19;151872;-53
2021/10/03 02:51:36;;;;;;;;;;;;;;;19.40;70.38;98979.88;7287547;19;153289;-53
2021/10/03 02:54:03;;;;;;;;;;;;;;;19.43;70.72;98981.19;7283749;19;152209;-52
2021/10/03 02:56:32;;;;;;;;;;;;;;;19.41;70.49;98981.53;7294880;19;152163;-52
2021/10/03 02:58:59;;;;;;;;;;;;;;;19.43;70.65;98967.19;7286558;19;153402;-52
2021/10/03 03:01:26;;;;;;;;;;;;;;;19.42;70.62;98993.56;7281798;19;151845;-52
2021/10/03 03:03:53;;;;;;;;;;;;;;;19.44;70.63;98999.66;7285411;19;153591;-53
2021/10/03 03:06:20;;;;;;;;;;;;;;;19.44;70.96;98994.06;7281893;19;152647;-52
2021/10/03 03:08:48;;;;;;;;;;;;;;;19.44;71.18;98994.84;7286111;19;151829;-52
2021/10/03 03:11:16;;;;;;;;;;;;;;;19.40;71.48;99012.66;7286285;19;152555;-52
2021/10/03 03:13:43;;;;;;;;;;;;;;;19.41;71.11;99009.53;7283233;19;153292;-52
2021/10/03 03:16:12;;;;;;;;;;;;;;;19.40;71.15;98993.06;7285047;19;152189;-52
2021/10/03 03:18:41;;;;;;;;;;;;;;;19.42;71.61;98996.34;7290299;19;153317;-52
2021/10/03 03:21:09;;;;;;;;;;;;;;;19.41;71.54;98989.94;7283779;19;152668;-52
2021/10/03 03:23:38;;;;;;;;;;;;;;;19.40;71.60;98995.88;7285019;19;152217;-52
2021/10/03 03:26:06;;;;;;;;;;;;;;;19.39;71.73;98991.47;7282816;19;154208;-52
2021/10/03 03:28:33;;;;;;;;;;;;;;;19.41;71.83;98983.50;7286040;19;151672;-52
2021/10/03 03:31:00;;;;;;;;;;;;;;;19.42;71.98;98982.34;7285749;19;153457;-52
2021/10/03 03:33:27;;;;;;;;;;;;;;;19.40;71.96;98985.50;7284714;19;154598;-53
2021/10/03 03:35:54;;;;;;;;;;;;;;;19.42;71.77;98988.78;7285246;19;151796;-52
2021/10/03 03:38:21;;;;;;;;;;;;;;;19.44;71.88;98996.88;7289880;19;153292;-52
2021/10/03 03:40:49;;;;;;;;;;;;;;;19.44;72.00;98992.06;7296453;19;152861;-51
2021/10/03 03:43:16;;;;;;;;;;;;;;;19.45;71.47;99010.50;7292388;19;152024;-52
2021/10/03 03:45:43;;;;;;;;;;;;;;;19.44;71.54;99013.66;7288260;19;152364;-52
2021/10/03 03:48:10;;;;;;;;;;;;;;;19.44;71.89;99022.06;7292197;19;151727;-53
2021/10/03 03:50:39;;;;;;;;;;;;;;;19.43;71.77;99021.25;7289152;19;152661;-52
2021/10/03 03:53:06;;;;;;;;;;;;;;;19.43;71.46;99028.81;7289069;19;153357;-52
2021/10/03 03:55:33;;;;;;;;;;;;;;;19.43;71.79;99034.41;7291136;19;151772;-52
2021/10/03 03:58:00;;;;;;;;;;;;;;;19.40;72.22;99026.69;7292268;19;153438;-52
2021/10/03 04:00:27;;;;;;;;;;;;;;;19.41;71.74;99008.72;7290372;19;152173;-52
2021/10/03 04:02:55;;;;;;;;;;;;;;;19.39;71.88;99016.66;7300030;19;151867;-52
2021/10/03 04:05:22;;;;;;;;;;;;;;;19.41;71.30;99022.72;7288421;19;154038;-53
2021/10/03 04:07:49;;;;;;;;;;;;;;;19.37;71.71;99018.97;7288795;19;151808;-52
2021/10/03 04:10:16;;;;;;;;;;;;;;;19.37;71.58;99004.97;7291642;19;152998;-51
2021/10/03 04:12:43;;;;;;;;;;;;;;;19.36;71.60;99012.56;7290593;19;154055;-52
2021/10/03 04:15:10;;;;;;;;;;;;;;;19.35;71.68;99007.31;7291546;19;151673;-52
2021/10/03 04:17:38;;;;;;;;;;;;;;;19.37;71.98;99025.41;7291004;19;153353;-52
2021/10/03 04:20:06;;;;;;;;;;;;;;;19.35;71.46;99029.72;7290353;19;154242;-52
2021/10/03 04:22:33;;;;;;;;;;;;;;;19.37;71.41;99036.59;7291437;19;152227;-52
2021/10/03 04:25:00;;;;;;;;;;;;;;;19.37;71.67;99027.38;7298404;19;152910;-51
2021/10/03 04:27:27;;;;;;;;;;;;;;;19.35;71.95;99021.31;7289623;19;151681;-51
2021/10/03 04:29:54;;;;;;;;;;;;;;;19.33;72.03;99027.25;7291215;19;152616;-52
2021/10/03 04:32:21;;;;;;;;;;;;;;;19.37;71.43;99022.59;7289901;19;153217;-52
2021/10/03 04:34:48;;;;;;;;;;;;;;;19.37;71.68;99030.19;7287903;19;151892;-52
2021/10/03 04:37:15;;;;;;;;;;;;;;;19.34;71.83;99030.88;7291253;19;152737;-52
2021/10/03 04:39:42;;;;;;;;;;;;;;;19.36;71.46;99022.94;7289459;19;154095;-52
2021/10/03 04:42:09;;;;;;;;;;;;;;;19.37;71.41;99032.97;7290791;19;151819;-52
2021/10/03 04:44:36;;;;;;;;;;;;;;;19.36;71.59;99053.75;7288112;19;152482;-51
2021/10/03 04:47:04;;;;;;;;;;;;;;;19.36;71.49;99048.13;7295737;19;153716;-52
2021/10/03 04:49:31;;;;;;;;;;;;;;;19.32;71.86;99052.81;7288971;19;152248;-52
2021/10/03 04:51:58;;;;;;;;;;;;;;;19.32;71.88;99056.41;7289608;19;153294;-53
2021/10/03 04:54:25;;;;;;;;;;;;;;;19.30;71.72;99069.97;7290050;19;151781;-52
2021/10/03 04:56:52;;;;;;;;;;;;;;;19.29;71.65;99068.31;7287670;19;151688;-52
2021/10/03 04:59:19;;;;;;;;;;;;;;;19.30;71.82;99064.38;7287102;19;153339;-52
2021/10/03 05:01:45;;;;;;;;;;;;;;;19.29;72.04;99071.13;7290332;19;151857;-51
2021/10/03 05:04:13;;;;;;;;;;;;;;;19.28;71.82;99066.69;7289916;19;153630;-52
2021/10/03 05:06:40;;;;;;;;;;;;;;;19.29;71.67;99076.72;7295541;19;154067;-52
2021/10/03 05:09:07;;;;;;;;;;;;;;;19.29;72.00;99087.09;7289821;19;153365;-51
2021/10/03 05:11:34;;;;;;;;;;;;;;;19.31;71.83;99102.38;7288289;19;154005;-51
2021/10/03 05:14:06;;;;;;;;;;;;;;;19.30;71.69;99092.38;7288205;19;152277;-51
2021/10/03 05:16:34;;;;;;;;;;;;;;;19.30;71.39;99083.16;7287716;19;153504;-52
2021/10/03 05:19:02;;;;;;;;;;;;;;;19.28;71.43;99082.66;7286998;19;153813;-51
2021/10/03 05:21:29;;;;;;;;;;;;;;;19.28;71.45;99068.66;7289932;19;151608;-52
2021/10/03 05:23:56;;;;;;;;;;;;;;;19.30;71.53;99069.16;7289590;19;153460;-51
2021/10/03 05:26:23;;;;;;;;;;;;;;;19.26;71.65;99071.00;7285203;19;153185;-52
2021/10/03 05:28:50;;;;;;;;;;;;;;;19.29;71.76;99061.91;7295010;19;151963;-52
2021/10/03 05:31:17;;;;;;;;;;;;;;;19.28;71.79;99069.47;7286675;19;153726;-51
2021/10/03 05:33:44;;;;;;;;;;;;;;;19.28;71.88;99065.84;7289128;19;151898;-51
2021/10/03 05:36:12;;;;;;;;;;;;;;;19.27;71.54;99072.63;7288674;19;151798;-52
2021/10/03 05:38:39;;;;;;;;;;;;;;;19.27;71.51;99069.81;7286609;19;151985;-52
2021/10/03 05:41:06;;;;;;;;;;;;;;;19.26;71.99;99077.41;7286538;19;151958;-52
2021/10/03 05:43:34;;;;;;;;;;;;;;;19.25;72.06;99089.78;7289683;19;152667;-52
2021/10/03 05:46:01;;;;;;;;;;;;;;;19.29;71.50;99078.72;7286073;19;153486;-52
2021/10/03 05:48:29;;;;;;;;;;;;;;;19.25;71.61;99070.19;7286964;19;151806;-52
2021/10/03 05:50:55;;;;;;;;;;;;;;;19.25;71.82;99074.97;7294375;19;152361;-51
2021/10/03 05:53:22;;;;;;;;;;;;;;;19.25;71.93;99077.75;7288794;19;151438;-52
2021/10/03 05:55:49;;;;;;;;;;;;;;;19.25;72.01;99088.97;7288815;19;153191;-52
2021/10/03 05:58:21;;;;;;;;;;;;;;;19.26;71.58;99096.22;7288306;19;153339;-52
2021/10/03 06:00:48;;;;;;;;;;;;;;;19.25;71.37;99100.97;7281551;19;152196;-52
2021/10/03 06:03:15;;;;;;;;;;;;;;;19.27;71.58;99106.22;7285942;19;152639;-52
2021/10/03 06:05:42;;;;;;;;;;;;;;;19.24;71.50;99110.53;7287256;19;153818;-52
2021/10/03 06:08:10;;;;;;;;;;;;;;;19.21;71.86;99114.03;7286236;19;151487;-53
2021/10/03 06:10:37;;;;;;;;;;;;;;;19.23;71.76;99133.28;7288180;19;152793;-52
2021/10/03 06:13:05;;;;;;;;;;;;;;;19.22;71.80;99132.44;7292983;19;152839;-52
2021/10/03 06:15:33;;;;;;;;;;;;;;;19.25;71.48;99137.38;7288587;19;153326;-52
2021/10/03 06:18:00;;;;;;;;;;;;;;;19.23;71.36;99138.88;7287162;19;154189;-52
2021/10/03 06:20:27;;;;;;;;;;;;;;;19.20;71.97;99136.78;7287148;19;151890;-52
2021/10/03 06:22:54;;;;;;;;;;;;;;;19.19;71.91;99133.16;7288221;19;152651;-53
2021/10/03 06:25:21;;;;;;;;;;;;;;;19.18;71.66;99142.69;7286762;19;153617;-52
2021/10/03 06:27:48;;;;;;;;;;;;;;;19.18;72.05;99147.47;7286318;19;151974;-52
2021/10/03 06:30:15;;;;;;;;;;;;;;;19.17;71.62;99143.06;7285695;19;153422;-52
2021/10/03 06:32:42;;;;;;;;;;;;;;;19.17;71.81;99145.88;7286564;19;153991;-53
2021/10/03 06:35:09;;;;;;;;;;;;;;;19.19;71.65;99143.53;7294968;19;151596;-52
2021/10/03 06:37:36;;;;;;;;;;;;;;;19.18;71.74;99145.50;7285951;19;152588;-52
2021/10/03 06:40:05;;;;;;;;;;;;;;;19.21;71.58;99161.63;7286709;19;151868;-52
2021/10/03 06:42:32;;;;;;;;;;;;;;;19.28;71.39;99172.25;7288280;19;152997;-51
2021/10/03 06:44:59;;;;;;;;;;;;;;;19.36;71.60;99185.34;7284167;19;154086;-52
2021/10/03 06:47:26;;;;;;;;;;;;;;;19.36;71.74;99182.56;7286167;19;151724;-53
2021/10/03 06:49:53;;;;;;;;;;;;;;;19.39;72.22;99179.09;7286434;19;153027;-51
2021/10/03 06:52:20;;;;;;;;;;;;;;;19.42;73.01;99170.00;7286137;19;152956;-52
2021/10/03 06:54:47;;;;;;;;;;;;;;;19.45;72.93;99166.53;7286593;19;151684;-52
2021/10/03 06:57:14;;;;;;;;;;;;;;;19.49;73.06;99168.28;7294049;19;152808;-52
2021/10/03 06:59:41;;;;;;;;;;;;;;;19.54;73.68;99170.06;7285644;19;151983;-52
2021/10/03 07:02:15;;;;;;;;;;;;;;;19.59;73.46;99171.81;7286404;19;152255;-52
2021/10/03 07:04:42;;;;;;;;;;;;;;;19.66;73.60;99172.91;7283192;19;152705;-52
2021/10/03 07:07:10;;;;;;;;;;;;;;;19.73;73.81;99186.34;7286565;19;152193;-52
2021/10/03 07:09:37;;;;;;;;;;;;;;;19.76;73.64;99197.66;7285760;19;153061;-52
2021/10/03 07:12:04;;;;;;;;;;;;;;;19.83;73.86;99225.97;7292604;19;152999;-52
2021/10/03 07:14:31;;;;;;;;;;;;;;;19.87;73.17;99235.31;7299429;19;151417;-52
2021/10/03 07:16:58;;;;;;;;;;;;;;;19.92;72.99;99237.91;7307376;19;153163;-52
2021/10/03 07:19:25;;;;;;;;;;;;;;;19.97;72.73;99243.31;7300489;19;151991;-52
2021/10/03 07:21:52;;;;;;;;;;;;;;;20.01;72.67;99246.22;7298404;19;152122;-52
2021/10/03 07:24:19;;;;;;;;;;;;;;;20.05;72.20;99247.16;7298849;19;153255;-52
2021/10/03 07:26:47;;;;;;;;;;;;;;;20.10;72.19;99260.13;7299406;19;151578;-53
2021/10/03 07:29:14;;;;;;;;;;;;;;;20.13;71.98;99270.66;7295276;19;153265;-52
2021/10/03 07:31:41;;;;;;;;;;;;;;;20.17;71.73;99280.03;7298368;19;152599;-52
2021/10/03 07:34:08;;;;;;;;;;;;;;;20.20;72.06;99280.16;7300112;19;152125;-52
2021/10/03 07:36:35;;;;;;;;;;;;;;;20.23;71.66;99273.03;7299308;19;153322;-52
2021/10/03 07:39:02;;;;;;;;;;;;;;;20.26;71.28;99286.38;7306933;19;153346;-52
2021/10/03 07:41:29;;;;;;;;;;;;;;;20.29;71.16;99302.50;7299945;19;153329;-52
2021/10/03 07:43:56;;;;;;;;;;;;;;;20.31;70.65;99303.81;7298957;19;153700;-53
2021/10/03 07:46:23;;;;;;;;;;;;;;;20.34;70.58;99310.72;7299222;19;151811;-52
2021/10/03 07:48:52;;;;;;;;;;;;;;;20.35;70.34;99329.19;7298196;19;152938;-52
2021/10/03 07:51:19;;;;;;;;;;;;;;;20.36;70.23;99323.22;7296755;19;152207;-52
2021/10/03 07:53:46;;;;;;;;;;;;;;;20.37;70.22;99316.44;7298832;19;151926;-53
2021/10/03 07:56:13;;;;;;;;;;;;;;;20.39;69.59;99313.31;7299893;19;152662;-52
2021/10/03 07:58:40;;;;;;;;;;;;;;;20.40;69.24;99314.91;7298846;19;153269;-53
2021/10/03 08:01:08;;;;;;;;;;;;;;;20.42;70.03;99307.00;7304511;19;151852;-52
2021/10/03 08:03:37;;;;;;;;;;;;;;;20.44;69.42;99313.09;7297777;19;152850;-52
2021/10/03 08:06:05;;;;;;;;;;;;;;;20.45;69.67;99336.31;7296849;19;152067;-53
2021/10/03 08:08:32;;;;;;;;;;;;;;;20.48;69.62;99338.47;7297763;19;152177;-52
2021/10/03 08:10:59;;;;;;;;;;;;;;;20.46;67.18;99346.38;7296174;19;153387;-52
2021/10/03 08:13:26;;;;;;;;;;;;;;;20.13;58.09;99335.97;7299593;19;151767;-52
2021/10/03 08:15:53;;;;;;;;;;;;;;;20.27;62.12;99335.66;7297018;19;153204;-54
2021/10/03 08:18:20;;;;;;;;;;;;;;;20.30;63.11;99327.44;7297601;19;153888;-52
2021/10/03 08:20:50;;;;;;;;;;;;;;;20.31;62.96;99319.81;7297425;19;152191;-52
2021/10/03 08:23:18;;;;;;;;;;;;;;;20.31;62.94;99331.84;7297672;19;152855;-52
2021/10/03 08:25:46;;;;;;;;;;;;;;;20.35;63.21;99343.22;7289174;19;151887;-51
2021/10/03 08:28:13;;;;;;;;;;;;;;;20.33;63.39;99348.34;7289409;19;152966;-53
2021/10/03 08:30:40;;;;;;;;;;;;;;;20.33;62.95;99329.53;7286441;19;153277;-53
2021/10/03 08:33:07;;;;;;;;;;;;;;;20.31;63.00;99340.25;7289454;19;151902;-52
2021/10/03 08:35:34;;;;;;;;;;;;;;;20.36;63.33;99356.06;7289715;19;154647;-52
2021/10/03 08:38:01;;;;;;;;;;;;;;;20.35;63.25;99360.06;7287787;19;153878;-52
2021/10/03 08:40:28;;;;;;;;;;;;;;;20.34;63.37;99369.63;7289586;19;151701;-52
2021/10/03 08:42:55;;;;;;;;;;;;;;;20.36;63.62;99370.09;7289262;19;153273;-52
2021/10/03 08:45:22;;;;;;;;;;;;;;;20.38;63.59;99368.59;7293437;19;153929;-52
2021/10/03 08:47:49;;;;;;;;;;;;;;;20.40;63.19;99376.63;7286266;19;153884;-52
2021/10/03 08:50:17;;;;;;;;;;;;;;;20.41;63.89;99381.09;7287559;19;154126;-53
2021/10/03 08:52:45;;;;;;;;;;;;;;;20.46;63.42;99377.25;7285848;19;152053;-52
2021/10/03 08:55:13;;;;;;;;;;;;;;;20.44;63.07;99379.59;7286795;19;152821;-52
2021/10/03 08:57:40;;;;;;;;;;;;;;;20.40;62.87;99374.66;7285595;19;152636;-52
2021/10/03 09:00:10;;;;;;;;;;;;;;;20.38;63.41;99399.44;7285562;19;151982;-52
2021/10/03 09:02:45;;;;;;;;;;;;;;;20.15;58.29;99392.53;7288768;19;153460;-51
2021/10/03 09:05:13;;;;;;;;;;;;;;;20.16;60.06;99393.38;7287789;19;153875;-52
2021/10/03 09:07:41;;;;;;;;;;;;;;;20.22;60.77;99391.97;7294351;19;151585;-52
2021/10/03 09:10:08;;;;;;;;;;;;;;;20.21;60.60;99402.38;7286730;19;153545;-52
2021/10/03 09:12:36;;;;;;;;;;;;;;;20.21;60.60;99402.38;7288479;19;151950;-53
2021/10/03 09:15:05;;;;;;;;;;;;;;;20.26;60.04;99416.16;7287919;19;152086;-52
2021/10/03 09:17:32;;;;;;;;;;;;;;;20.30;60.17;99422.78;7285287;19;153744;-52
2021/10/03 09:20:02;;;;;;;;;;;;;;;20.34;60.18;99415.31;7288159;19;151825;-53
2021/10/03 09:22:29;;;;;;;;;;;;;;;20.34;60.05;99426.53;7288385;19;153299;-51
2021/10/03 09:24:59;;;;;;;;;;;;;;;20.38;60.36;99418.25;7286601;19;153324;-52
2021/10/03 09:27:44;;;;;;;;;;;;;;;20.37;60.65;99431.47;7294483;19;151767;-52
2021/10/03 09:30:11;;;;;;;;;;;;;;;20.39;60.89;99429.16;7286254;19;153430;-52
2021/10/03 09:32:38;;;;;;;;;;;;;;;20.44;60.71;99447.75;7288262;19;151935;-52
2021/10/03 09:35:09;;;;;;;;;;;;;;;20.49;60.49;99443.91;7285993;19;152788;-52
2021/10/03 09:37:37;;;;;;;;;;;;;;;20.52;60.92;99440.41;7286674;19;154237;-52
2021/10/03 09:40:05;;;;;;;;;;;;;;;20.56;60.51;99438.53;7287602;19;151714;-52
2021/10/03 09:42:32;;;;;;;;;;;;;;;20.61;60.51;99427.94;7286974;19;153459;-52
2021/10/03 09:45:02;;;;;;;;;;;;;;;20.65;60.58;99444.88;7285194;19;153544;-53
2021/10/03 09:47:29;;;;;;;;;;;;;;;20.71;60.17;99463.16;7288110;19;151968;-53
2021/10/03 09:49:57;;;;;;;;;;;;;;;20.75;59.81;99458.50;7290911;19;152092;-52
2021/10/03 09:52:24;;;;;;;;;;;;;;;20.79;59.90;99454.66;7286578;19;152201;-52
2021/10/03 09:54:52;;;;;;;;;;;;;;;20.83;59.89;99452.78;7285470;19;152917;-52
2021/10/03 09:57:19;;;;;;;;;;;;;;;20.88;59.61;99460.16;7284013;19;154530;-52
2021/10/03 09:59:46;;;;;;;;;;;;;;;20.91;58.91;99458.63;7286535;19;151975;-52
2021/10/03 10:02:14;;;;;;;;;;;;;;;20.98;59.42;99470.13;7288616;19;151941;-52
2021/10/03 10:04:42;;;;;;;;;;;;;;;21.02;58.78;99468.28;7286573;19;154085;-52
2021/10/03 10:07:09;;;;;;;;;;;;;;;21.06;58.38;99472.03;7285405;19;151926;-52
2021/10/03 10:09:37;;;;;;;;;;;;;;;21.09;58.50;99483.38;7282551;19;153282;-52
2021/10/03 10:12:06;;;;;;;;;;;;;;;21.12;58.43;99482.66;7291553;19;153869;-52
2021/10/03 10:14:35;;;;;;;;;;;;;;;21.16;57.93;99485.66;7287548;19;153676;-52
2021/10/03 10:17:05;;;;;;;;;;;;;;;21.21;57.86;99482.63;7283276;19;154189;-52
2021/10/03 10:19:34;;;;;;;;;;;;;;;21.23;58.29;99489.53;7286847;19;151785;-52
2021/10/03 10:22:04;;;;;;;;;;;;;;;21.28;58.67;99485.66;7287039;19;153095;-52
2021/10/03 10:24:34;;;;;;;;;;;;;;;21.34;58.13;99486.25;7285246;19;152717;-52
2021/10/03 10:27:01;;;;;;;;;;;;;;;21.37;57.40;99486.38;7286067;19;151806;-52
2021/10/03 10:29:31;;;;;;;;;;;;;;;21.40;57.67;99498.88;7284737;19;152049;-52
2021/10/03 10:32:07;;;;;;;;;;;;;;;21.42;57.64;99490.94;7285409;19;153929;-52
2021/10/03 10:34:54;;;;;;;;;;;;;;;21.48;57.36;99487.56;7292454;19;151899;-52
2021/10/03 10:37:21;;;;;;;;;;;;;;;21.51;56.80;99498.09;7284019;19;153954;-52
2021/10/03 10:39:48;;;;;;;;;;;;;;;21.52;56.22;99488.50;7285495;19;151635;-52
2021/10/03 10:42:18;;;;;;;;;;;;;;;21.54;56.38;99497.38;7286188;19;151568;-52
2021/10/03 10:44:46;;;;;;;;;;;;;;;21.58;56.36;99494.69;7284499;19;153048;-52
2021/10/03 10:47:16;;;;;;;;;;;;;;;21.60;56.58;99495.16;7283901;19;151796;-52
2021/10/03 10:49:44;;;;;;;;;;;;;;;21.62;55.83;99501.28;7282594;19;154154;-52
2021/10/03 10:52:14;;;;;;;;;;;;;;;21.64;56.23;99510.16;7282901;19;152620;-52
2021/10/03 10:54:41;;;;;;;;;;;;;;;21.63;55.73;99517.78;7286089;19;151653;-52
2021/10/03 10:57:09;;;;;;;;;;;;;;;21.65;55.70;99512.63;7292354;19;153324;-52
2021/10/03 10:59:39;;;;;;;;;;;;;;;21.65;55.31;99518.25;7284621;19;151771;-52
2021/10/03 11:02:07;;;;;;;;;;;;;;;21.66;55.15;99517.09;7285801;19;152898;-53
2021/10/03 11:04:34;;;;;;;;;;;;;;;21.67;55.01;99520.69;7284001;19;154167;-53
2021/10/03 11:07:01;;;;;;;;;;;;;;;21.64;54.37;99515.78;7284223;19;152159;-53
2021/10/03 11:09:29;;;;;;;;;;;;;;;21.68;55.14;99531.59;7283725;19;153486;-52
2021/10/03 11:11:58;;;;;;;;;;;;;;;21.69;55.78;99526.81;7283942;19;154177;-53
2021/10/03 11:14:26;;;;;;;;;;;;;;;21.65;55.85;99537.94;7285646;19;151702;-53
2021/10/03 11:16:58;;;;;;;;;;;;;;;21.61;55.96;99520.13;7285684;19;152842;-53
2021/10/03 11:19:28;;;;;;;;;;;;;;;21.61;56.08;99525.75;7291017;19;151829;-53
2021/10/03 11:21:56;;;;;;;;;;;;;;;21.60;55.65;99520.47;7283374;19;153365;-52
2021/10/03 11:24:26;;;;;;;;;;;;;;;21.67;55.06;99524.31;7282271;19;152734;-52
2021/10/03 11:26:56;;;;;;;;;;;;;;;21.70;55.17;99526.47;7283054;19;152510;-52
2021/10/03 11:29:24;;;;;;;;;;;;;;;21.70;55.22;99520.00;7283691;19;153439;-52
2021/10/03 11:31:54;;;;;;;;;;;;;;;21.93;57.65;99526.00;7283185;19;154410;-52
2021/10/03 11:34:24;;;;;;;;;;;;;;;21.85;56.65;99524.13;7283892;19;152292;-51
2021/10/03 11:36:51;;;;;;;;;;;;;;;21.88;57.75;99526.22;7284798;19;152884;-51
2021/10/03 11:39:32;;;;;;;;;;;;;;;21.80;58.07;99527.97;7291532;19;153311;-52
2021/10/03 11:41:59;;;;;;;;;;;;;;;21.80;56.50;99538.41;7282031;19;152908;-52
2021/10/03 11:44:27;;;;;;;;;;;;;;;21.79;55.87;99536.75;7282442;19;152668;-53
2021/10/03 11:46:55;;;;;;;;;;;;;;;21.80;55.58;99541.22;7281429;19;152319;-52
2021/10/03 11:49:25;;;;;;;;;;;;;;;21.79;55.02;99546.03;7283636;19;152859;-52
2021/10/03 11:51:52;;;;;;;;;;;;;;;21.81;56.71;99546.47;7280416;19;153986;-51
2021/10/03 11:54:24;;;;;;;;;;;;;;;21.82;57.45;99555.72;7280288;19;152033;-51
2021/10/03 11:56:51;;;;;;;;;;;;;;;21.78;57.17;99554.78;7279960;19;153514;-50
2021/10/03 11:59:20;;;;;;;;;;;;;;;21.78;56.09;99555.63;7285653;19;153190;-51
2021/10/03 12:01:50;;;;;;;;;;;;;;;21.79;55.63;99546.03;7291598;19;152504;-51
2021/10/03 12:04:24;;;;;;;;;;;;;;;21.78;55.22;99566.88;7287230;19;153940;-51
2021/10/03 12:06:51;;;;;;;;;;;;;;;21.76;55.52;99554.34;7290171;19;152050;-51
2021/10/03 12:09:18;;;;;;;;;;;;;;;21.76;54.88;99562.78;7289498;19;153960;-51
2021/10/03 12:11:48;;;;;;;;;;;;;;;21.72;55.25;99563.47;7287390;19;153373;-51
2021/10/03 12:14:15;;;;;;;;;;;;;;;21.70;54.82;99571.44;7289973;19;151434;-50
2021/10/03 12:16:45;;;;;;;;;;;;;;;21.63;54.40;99564.72;7287993;19;153335;-51
2021/10/03 12:19:12;;;;;;;;;;;;;;;21.60;53.96;99576.69;7289440;19;153350;-50
2021/10/03 12:21:39;;;;;;;;;;;;;;;21.59;53.61;99566.59;7289661;19;151665;-51
2021/10/03 12:24:08;;;;;;;;;;;;;;;21.54;52.79;99573.28;7296462;19;153034;-51
2021/10/03 12:26:38;;;;;;;;;;;;;;;21.55;53.49;99572.09;7286550;19;152116;-52
2021/10/03 12:29:05;;;;;;;;;;;;;;;21.55;53.70;99568.47;7290334;19;153161;-52
2021/10/03 12:31:36;;;;;;;;;;;;;;;21.49;53.82;99570.69;7288426;19;153935;-51
2021/10/03 12:34:04;;;;;;;;;;;;;;;21.47;53.21;99591.88;7287937;19;151848;-52
2021/10/03 12:36:32;;;;;;;;;;;;;;;21.43;52.83;99590.94;7287711;19;153371;-52
2021/10/03 12:38:59;;;;;;;;;;;;;;;21.43;52.89;99583.34;7286202;19;154024;-51